sensor_id;sensor_type;location;lat;lon;timestamp;P1;durP1;ratioP1;P2;durP2;ratioP2
13764;SDS011;6953;48.810;9.204;2022-10-19T00:00:16;0.40;;;0.40;;
13764;SDS011;6953;48.810;9.204;2022-10-19T00:02:42;0.22;;;0.22;;
13764;SDS011;6953;48.810;9.204;2022-10-19T00:05:07;0.30;;;0.30;;
13764;SDS011;6953;48.810;9.204;2022-10-19T00:07:33;0.30;;;0.30;;
13764;SDS011;6953;48.810;9.204;2022-10-19T00:09:58;0.30;;;0.30;;
13764;SDS011;6953;48.810;9.204;2022-10-19T00:12:24;0.20;;;0.20;;
13764;SDS011;6953;48.810;9.204;2022-10-19T00:14:49;0.20;;;0.20;;
13764;SDS011;6953;48.810;9.204;2022-10-19T00:17:15;0.30;;;0.30;;
13764;SDS011;6953;48.810;9.204;2022-10-19T00:19:40;0.30;;;0.30;;
13764;SDS011;6953;48.810;9.204;2022-10-19T00:22:05;0.30;;;0.30;;
13764;SDS011;6953;48.810;9.204;2022-10-19T00:24:31;0.30;;;0.30;;
13764;SDS011;6953;48.810;9.204;2022-10-19T00:26:56;0.32;;;0.32;;
13764;SDS011;6953;48.810;9.204;2022-10-19T00:29:21;0.30;;;0.30;;
13764;SDS011;6953;48.810;9.204;2022-10-19T00:31:48;0.30;;;0.30;;
13764;SDS011;6953;48.810;9.204;2022-10-19T00:34:14;0.30;;;0.30;;
13764;SDS011;6953;48.810;9.204;2022-10-19T00:36:39;0.30;;;0.30;;
13764;SDS011;6953;48.810;9.204;2022-10-19T00:39:07;0.30;;;0.30;;
13764;SDS011;6953;48.810;9.204;2022-10-19T00:41:35;0.30;;;0.30;;
13764;SDS011;6953;48.810;9.204;2022-10-19T00:46:33;0.40;;;0.40;;
13764;SDS011;6953;48.810;9.204;2022-10-19T00:49:06;0.40;;;0.40;;
13764;SDS011;6953;48.810;9.204;2022-10-19T00:51:45;0.40;;;0.40;;
13764;SDS011;6953;48.810;9.204;2022-10-19T00:54:13;0.20;;;0.20;;
13764;SDS011;6953;48.810;9.204;2022-10-19T00:56:41;0.40;;;0.40;;
13764;SDS011;6953;48.810;9.204;2022-10-19T00:59:08;0.30;;;0.30;;
13764;SDS011;6953;48.810;9.204;2022-10-19T01:01:36;0.30;;;0.30;;
13764;SDS011;6953;48.810;9.204;2022-10-19T01:04:01;0.30;;;0.30;;
13764;SDS011;6953;48.810;9.204;2022-10-19T01:06:28;0.30;;;0.30;;
13764;SDS011;6953;48.810;9.204;2022-10-19T01:08:54;0.40;;;0.40;;
13764;SDS011;6953;48.810;9.204;2022-10-19T01:16:52;0.20;;;0.20;;
13764;SDS011;6953;48.810;9.204;2022-10-19T01:22:45;0.20;;;0.20;;
13764;SDS011;6953;48.810;9.204;2022-10-19T01:31:12;0.30;;;0.30;;
13764;SDS011;6953;48.810;9.204;2022-10-19T01:34:02;0.30;;;0.30;;
13764;SDS011;6953;48.810;9.204;2022-10-19T01:39:20;0.30;;;0.30;;
13764;SDS011;6953;48.810;9.204;2022-10-19T01:44:42;0.30;;;0.30;;
13764;SDS011;6953;48.810;9.204;2022-10-19T01:47:19;0.30;;;0.30;;
13764;SDS011;6953;48.810;9.204;2022-10-19T01:49:54;0.30;;;0.30;;
13764;SDS011;6953;48.810;9.204;2022-10-19T01:52:24;0.30;;;0.30;;
13764;SDS011;6953;48.810;9.204;2022-10-19T01:54:52;0.30;;;0.30;;
13764;SDS011;6953;48.810;9.204;2022-10-19T01:57:27;0.30;;;0.30;;
13764;SDS011;6953;48.810;9.204;2022-10-19T01:59:57;0.30;;;0.30;;
13764;SDS011;6953;48.810;9.204;2022-10-19T02:02:23;0.20;;;0.20;;
13764;SDS011;6953;48.810;9.204;2022-10-19T02:04:51;0.30;;;0.30;;
13764;SDS011;6953;48.810;9.204;2022-10-19T02:07:19;0.30;;;0.30;;
13764;SDS011;6953;48.810;9.204;2022-10-19T02:09:47;0.30;;;0.30;;
13764;SDS011;6953;48.810;9.204;2022-10-19T02:12:13;0.20;;;0.20;;
13764;SDS011;6953;48.810;9.204;2022-10-19T02:14:43;0.30;;;0.30;;
13764;SDS011;6953;48.810;9.204;2022-10-19T02:17:14;0.20;;;0.20;;
13764;SDS011;6953;48.810;9.204;2022-10-19T02:19:43;0.30;;;0.30;;
13764;SDS011;6953;48.810;9.204;2022-10-19T02:22:09;0.28;;;0.28;;
13764;SDS011;6953;48.810;9.204;2022-10-19T02:24:36;0.25;;;0.25;;
13764;SDS011;6953;48.810;9.204;2022-10-19T02:27:02;0.20;;;0.20;;
13764;SDS011;6953;48.810;9.204;2022-10-19T02:29:30;0.20;;;0.20;;
13764;SDS011;6953;48.810;9.204;2022-10-19T02:31:57;0.30;;;0.30;;
13764;SDS011;6953;48.810;9.204;2022-10-19T02:34:23;0.28;;;0.28;;
13764;SDS011;6953;48.810;9.204;2022-10-19T02:36:49;0.30;;;0.30;;
13764;SDS011;6953;48.810;9.204;2022-10-19T02:39:15;0.30;;;0.30;;
13764;SDS011;6953;48.810;9.204;2022-10-19T02:41:46;0.30;;;0.30;;
13764;SDS011;6953;48.810;9.204;2022-10-19T02:44:18;0.30;;;0.30;;
13764;SDS011;6953;48.810;9.204;2022-10-19T02:46:52;0.20;;;0.20;;
13764;SDS011;6953;48.810;9.204;2022-10-19T02:49:24;0.20;;;0.20;;
13764;SDS011;6953;48.810;9.204;2022-10-19T02:52:08;0.30;;;0.30;;
13764;SDS011;6953;48.810;9.204;2022-10-19T02:54:34;0.30;;;0.30;;
13764;SDS011;6953;48.810;9.204;2022-10-19T02:57:01;0.20;;;0.20;;
13764;SDS011;6953;48.810;9.204;2022-10-19T02:59:33;0.30;;;0.30;;
13764;SDS011;6953;48.810;9.204;2022-10-19T03:01:59;0.30;;;0.30;;
13764;SDS011;6953;48.810;9.204;2022-10-19T03:04:24;0.35;;;0.35;;
13764;SDS011;6953;48.810;9.204;2022-10-19T03:06:49;0.20;;;0.20;;
13764;SDS011;6953;48.810;9.204;2022-10-19T03:09:15;0.30;;;0.30;;
13764;SDS011;6953;48.810;9.204;2022-10-19T03:11:40;0.30;;;0.30;;
13764;SDS011;6953;48.810;9.204;2022-10-19T03:14:05;0.20;;;0.20;;
13764;SDS011;6953;48.810;9.204;2022-10-19T03:16:31;0.30;;;0.30;;
13764;SDS011;6953;48.810;9.204;2022-10-19T03:18:56;0.30;;;0.30;;
13764;SDS011;6953;48.810;9.204;2022-10-19T03:21:21;0.28;;;0.28;;
13764;SDS011;6953;48.810;9.204;2022-10-19T03:23:47;0.30;;;0.30;;
13764;SDS011;6953;48.810;9.204;2022-10-19T03:26:13;0.30;;;0.30;;
13764;SDS011;6953;48.810;9.204;2022-10-19T03:28:40;0.30;;;0.30;;
13764;SDS011;6953;48.810;9.204;2022-10-19T03:31:05;0.20;;;0.20;;
13764;SDS011;6953;48.810;9.204;2022-10-19T03:33:30;0.30;;;0.30;;
13764;SDS011;6953;48.810;9.204;2022-10-19T03:36:30;0.30;;;0.30;;
13764;SDS011;6953;48.810;9.204;2022-10-19T03:38:49;0.30;;;0.30;;
13764;SDS011;6953;48.810;9.204;2022-10-19T03:41:16;0.30;;;0.30;;
13764;SDS011;6953;48.810;9.204;2022-10-19T03:43:42;0.30;;;0.30;;
13764;SDS011;6953;48.810;9.204;2022-10-19T03:46:08;0.30;;;0.30;;
13764;SDS011;6953;48.810;9.204;2022-10-19T03:48:34;0.30;;;0.30;;
13764;SDS011;6953;48.810;9.204;2022-10-19T03:51:00;0.30;;;0.30;;
13764;SDS011;6953;48.810;9.204;2022-10-19T03:53:26;0.30;;;0.30;;
13764;SDS011;6953;48.810;9.204;2022-10-19T03:55:52;0.25;;;0.25;;
13764;SDS011;6953;48.810;9.204;2022-10-19T03:58:24;0.30;;;0.30;;
13764;SDS011;6953;48.810;9.204;2022-10-19T04:00:50;0.30;;;0.30;;
13764;SDS011;6953;48.810;9.204;2022-10-19T04:03:15;0.20;;;0.20;;
13764;SDS011;6953;48.810;9.204;2022-10-19T04:05:40;0.30;;;0.30;;
13764;SDS011;6953;48.810;9.204;2022-10-19T04:08:06;0.30;;;0.30;;
13764;SDS011;6953;48.810;9.204;2022-10-19T04:10:31;0.30;;;0.30;;
13764;SDS011;6953;48.810;9.204;2022-10-19T04:12:56;0.30;;;0.30;;
13764;SDS011;6953;48.810;9.204;2022-10-19T04:15:22;0.30;;;0.30;;
13764;SDS011;6953;48.810;9.204;2022-10-19T04:17:47;0.30;;;0.30;;
13764;SDS011;6953;48.810;9.204;2022-10-19T04:20:12;0.30;;;0.30;;
13764;SDS011;6953;48.810;9.204;2022-10-19T04:22:38;0.30;;;0.30;;
13764;SDS011;6953;48.810;9.204;2022-10-19T04:25:03;0.30;;;0.30;;
13764;SDS011;6953;48.810;9.204;2022-10-19T04:27:29;0.30;;;0.30;;
13764;SDS011;6953;48.810;9.204;2022-10-19T04:29:54;0.30;;;0.30;;
13764;SDS011;6953;48.810;9.204;2022-10-19T04:32:20;0.30;;;0.30;;
13764;SDS011;6953;48.810;9.204;2022-10-19T04:34:45;0.20;;;0.20;;
13764;SDS011;6953;48.810;9.204;2022-10-19T04:37:10;0.30;;;0.30;;
13764;SDS011;6953;48.810;9.204;2022-10-19T04:39:36;0.28;;;0.28;;
13764;SDS011;6953;48.810;9.204;2022-10-19T04:42:04;0.30;;;0.30;;
13764;SDS011;6953;48.810;9.204;2022-10-19T04:44:30;0.25;;;0.25;;
13764;SDS011;6953;48.810;9.204;2022-10-19T04:46:55;0.28;;;0.28;;
13764;SDS011;6953;48.810;9.204;2022-10-19T04:49:20;0.30;;;0.30;;
13764;SDS011;6953;48.810;9.204;2022-10-19T04:51:46;0.30;;;0.30;;
13764;SDS011;6953;48.810;9.204;2022-10-19T04:54:11;0.20;;;0.20;;
13764;SDS011;6953;48.810;9.204;2022-10-19T04:56:37;0.30;;;0.30;;
13764;SDS011;6953;48.810;9.204;2022-10-19T04:59:03;0.28;;;0.28;;
13764;SDS011;6953;48.810;9.204;2022-10-19T05:01:29;0.20;;;0.20;;
13764;SDS011;6953;48.810;9.204;2022-10-19T05:03:56;0.30;;;0.30;;
13764;SDS011;6953;48.810;9.204;2022-10-19T05:06:23;0.30;;;0.30;;
13764;SDS011;6953;48.810;9.204;2022-10-19T05:08:49;0.32;;;0.32;;
13764;SDS011;6953;48.810;9.204;2022-10-19T05:11:15;0.30;;;0.30;;
13764;SDS011;6953;48.810;9.204;2022-10-19T05:13:42;0.30;;;0.30;;
13764;SDS011;6953;48.810;9.204;2022-10-19T05:16:10;0.30;;;0.30;;
13764;SDS011;6953;48.810;9.204;2022-10-19T05:18:37;0.30;;;0.30;;
13764;SDS011;6953;48.810;9.204;2022-10-19T05:23:33;0.30;;;0.30;;
13764;SDS011;6953;48.810;9.204;2022-10-19T05:28:32;0.30;;;0.30;;
13764;SDS011;6953;48.810;9.204;2022-10-19T05:31:15;0.30;;;0.30;;
13764;SDS011;6953;48.810;9.204;2022-10-19T05:33:44;0.30;;;0.30;;
13764;SDS011;6953;48.810;9.204;2022-10-19T05:38:44;0.30;;;0.30;;
13764;SDS011;6953;48.810;9.204;2022-10-19T05:41:11;0.30;;;0.30;;
13764;SDS011;6953;48.810;9.204;2022-10-19T05:43:38;0.30;;;0.30;;
13764;SDS011;6953;48.810;9.204;2022-10-19T05:46:05;0.30;;;0.30;;
13764;SDS011;6953;48.810;9.204;2022-10-19T05:48:31;0.30;;;0.30;;
13764;SDS011;6953;48.810;9.204;2022-10-19T05:50:58;0.30;;;0.30;;
13764;SDS011;6953;48.810;9.204;2022-10-19T05:53:24;0.30;;;0.30;;
13764;SDS011;6953;48.810;9.204;2022-10-19T05:55:49;0.30;;;0.30;;
13764;SDS011;6953;48.810;9.204;2022-10-19T05:58:14;0.30;;;0.30;;
13764;SDS011;6953;48.810;9.204;2022-10-19T06:00:40;0.20;;;0.20;;
13764;SDS011;6953;48.810;9.204;2022-10-19T06:03:05;0.30;;;0.30;;
13764;SDS011;6953;48.810;9.204;2022-10-19T06:05:30;0.30;;;0.30;;
13764;SDS011;6953;48.810;9.204;2022-10-19T06:07:56;0.30;;;0.30;;
13764;SDS011;6953;48.810;9.204;2022-10-19T06:10:21;0.30;;;0.30;;
13764;SDS011;6953;48.810;9.204;2022-10-19T06:12:46;0.30;;;0.30;;
13764;SDS011;6953;48.810;9.204;2022-10-19T06:15:12;0.30;;;0.30;;
13764;SDS011;6953;48.810;9.204;2022-10-19T06:17:37;0.30;;;0.30;;
13764;SDS011;6953;48.810;9.204;2022-10-19T06:20:03;0.30;;;0.30;;
13764;SDS011;6953;48.810;9.204;2022-10-19T06:22:28;0.30;;;0.30;;
13764;SDS011;6953;48.810;9.204;2022-10-19T06:24:54;0.20;;;0.20;;
13764;SDS011;6953;48.810;9.204;2022-10-19T06:27:20;0.28;;;0.28;;
13764;SDS011;6953;48.810;9.204;2022-10-19T06:29:46;0.28;;;0.28;;
13764;SDS011;6953;48.810;9.204;2022-10-19T06:32:12;0.30;;;0.30;;
13764;SDS011;6953;48.810;9.204;2022-10-19T06:34:37;0.30;;;0.30;;
13764;SDS011;6953;48.810;9.204;2022-10-19T06:37:02;0.20;;;0.20;;
13764;SDS011;6953;48.810;9.204;2022-10-19T06:39:28;0.30;;;0.30;;
13764;SDS011;6953;48.810;9.204;2022-10-19T06:41:53;0.30;;;0.30;;
13764;SDS011;6953;48.810;9.204;2022-10-19T06:44:18;0.22;;;0.22;;
13764;SDS011;6953;48.810;9.204;2022-10-19T06:46:44;0.20;;;0.20;;
13764;SDS011;6953;48.810;9.204;2022-10-19T06:49:10;0.30;;;0.30;;
13764;SDS011;6953;48.810;9.204;2022-10-19T06:51:37;0.30;;;0.30;;
13764;SDS011;6953;48.810;9.204;2022-10-19T06:54:02;0.30;;;0.30;;
13764;SDS011;6953;48.810;9.204;2022-10-19T06:56:27;0.30;;;0.30;;
13764;SDS011;6953;48.810;9.204;2022-10-19T06:58:53;0.30;;;0.30;;
13764;SDS011;6953;48.810;9.204;2022-10-19T07:01:19;0.30;;;0.30;;
13764;SDS011;6953;48.810;9.204;2022-10-19T07:03:45;0.30;;;0.30;;
13764;SDS011;6953;48.810;9.204;2022-10-19T07:06:11;0.30;;;0.30;;
13764;SDS011;6953;48.810;9.204;2022-10-19T07:08:37;0.30;;;0.30;;
13764;SDS011;6953;48.810;9.204;2022-10-19T07:11:05;0.30;;;0.30;;
13764;SDS011;6953;48.810;9.204;2022-10-19T07:13:33;0.30;;;0.30;;
13764;SDS011;6953;48.810;9.204;2022-10-19T07:16:17;0.30;;;0.30;;
13764;SDS011;6953;48.810;9.204;2022-10-19T07:18:43;0.30;;;0.30;;
13764;SDS011;6953;48.810;9.204;2022-10-19T07:21:10;0.20;;;0.20;;
13764;SDS011;6953;48.810;9.204;2022-10-19T07:23:37;0.20;;;0.20;;
13764;SDS011;6953;48.810;9.204;2022-10-19T07:26:05;0.30;;;0.30;;
13764;SDS011;6953;48.810;9.204;2022-10-19T07:28:33;0.20;;;0.20;;
13764;SDS011;6953;48.810;9.204;2022-10-19T07:31:03;0.30;;;0.30;;
13764;SDS011;6953;48.810;9.204;2022-10-19T07:33:35;0.20;;;0.20;;
13764;SDS011;6953;48.810;9.204;2022-10-19T07:36:02;0.20;;;0.20;;
13764;SDS011;6953;48.810;9.204;2022-10-19T07:38:30;0.20;;;0.20;;
13764;SDS011;6953;48.810;9.204;2022-10-19T07:41:30;0.20;;;0.20;;
13764;SDS011;6953;48.810;9.204;2022-10-19T07:43:49;0.20;;;0.20;;
13764;SDS011;6953;48.810;9.204;2022-10-19T07:46:16;0.20;;;0.20;;
13764;SDS011;6953;48.810;9.204;2022-10-19T07:48:44;0.30;;;0.30;;
13764;SDS011;6953;48.810;9.204;2022-10-19T07:51:10;0.20;;;0.20;;
13764;SDS011;6953;48.810;9.204;2022-10-19T07:53:37;0.20;;;0.20;;
13764;SDS011;6953;48.810;9.204;2022-10-19T07:58:30;0.20;;;0.20;;
13764;SDS011;6953;48.810;9.204;2022-10-19T08:01:02;0.20;;;0.20;;
13764;SDS011;6953;48.810;9.204;2022-10-19T08:03:29;0.20;;;0.20;;
13764;SDS011;6953;48.810;9.204;2022-10-19T08:06:01;0.25;;;0.25;;
13764;SDS011;6953;48.810;9.204;2022-10-19T08:08:28;0.20;;;0.20;;
13764;SDS011;6953;48.810;9.204;2022-10-19T08:10:54;0.28;;;0.28;;
13764;SDS011;6953;48.810;9.204;2022-10-19T08:13:20;0.20;;;0.20;;
13764;SDS011;6953;48.810;9.204;2022-10-19T08:15:45;0.20;;;0.20;;
13764;SDS011;6953;48.810;9.204;2022-10-19T08:18:10;0.20;;;0.20;;
13764;SDS011;6953;48.810;9.204;2022-10-19T08:20:36;0.20;;;0.20;;
13764;SDS011;6953;48.810;9.204;2022-10-19T08:23:04;0.20;;;0.20;;
13764;SDS011;6953;48.810;9.204;2022-10-19T08:25:29;0.20;;;0.20;;
13764;SDS011;6953;48.810;9.204;2022-10-19T08:27:55;0.20;;;0.20;;
13764;SDS011;6953;48.810;9.204;2022-10-19T08:30:20;0.20;;;0.20;;
13764;SDS011;6953;48.810;9.204;2022-10-19T08:32:46;0.20;;;0.20;;
13764;SDS011;6953;48.810;9.204;2022-10-19T08:35:11;0.20;;;0.20;;
13764;SDS011;6953;48.810;9.204;2022-10-19T08:37:36;0.20;;;0.20;;
13764;SDS011;6953;48.810;9.204;2022-10-19T08:40:02;0.20;;;0.20;;
13764;SDS011;6953;48.810;9.204;2022-10-19T08:42:37;0.20;;;0.20;;
13764;SDS011;6953;48.810;9.204;2022-10-19T08:45:34;0.30;;;0.30;;
13764;SDS011;6953;48.810;9.204;2022-10-19T08:48:16;0.20;;;0.20;;
13764;SDS011;6953;48.810;9.204;2022-10-19T08:50:47;0.20;;;0.20;;
13764;SDS011;6953;48.810;9.204;2022-10-19T08:53:15;0.20;;;0.20;;
13764;SDS011;6953;48.810;9.204;2022-10-19T08:58:50;0.20;;;0.20;;
13764;SDS011;6953;48.810;9.204;2022-10-19T09:06:38;0.20;;;0.20;;
13764;SDS011;6953;48.810;9.204;2022-10-19T09:09:09;0.20;;;0.20;;
13764;SDS011;6953;48.810;9.204;2022-10-19T09:11:39;0.22;;;0.22;;
13764;SDS011;6953;48.810;9.204;2022-10-19T09:14:12;0.20;;;0.20;;
13764;SDS011;6953;48.810;9.204;2022-10-19T09:16:46;0.20;;;0.20;;
13764;SDS011;6953;48.810;9.204;2022-10-19T09:19:22;0.20;;;0.20;;
13764;SDS011;6953;48.810;9.204;2022-10-19T09:21:57;0.20;;;0.20;;
13764;SDS011;6953;48.810;9.204;2022-10-19T09:24:40;0.20;;;0.20;;
13764;SDS011;6953;48.810;9.204;2022-10-19T09:27:20;0.20;;;0.20;;
13764;SDS011;6953;48.810;9.204;2022-10-19T09:29:57;0.20;;;0.20;;
13764;SDS011;6953;48.810;9.204;2022-10-19T09:32:27;0.20;;;0.20;;
13764;SDS011;6953;48.810;9.204;2022-10-19T09:35:00;0.20;;;0.20;;
13764;SDS011;6953;48.810;9.204;2022-10-19T09:37:28;0.20;;;0.20;;
13764;SDS011;6953;48.810;9.204;2022-10-19T09:39:55;0.20;;;0.20;;
13764;SDS011;6953;48.810;9.204;2022-10-19T09:42:28;0.20;;;0.20;;
13764;SDS011;6953;48.810;9.204;2022-10-19T09:44:57;0.20;;;0.20;;
13764;SDS011;6953;48.810;9.204;2022-10-19T09:47:31;0.20;;;0.20;;
13764;SDS011;6953;48.810;9.204;2022-10-19T09:52:43;0.20;;;0.20;;
13764;SDS011;6953;48.810;9.204;2022-10-19T09:55:25;0.20;;;0.20;;
13764;SDS011;6953;48.810;9.204;2022-10-19T09:58:04;0.20;;;0.20;;
13764;SDS011;6953;48.810;9.204;2022-10-19T10:00:39;0.20;;;0.20;;
13764;SDS011;6953;48.810;9.204;2022-10-19T10:03:07;0.20;;;0.20;;
13764;SDS011;6953;48.810;9.204;2022-10-19T10:05:45;0.20;;;0.20;;
13764;SDS011;6953;48.810;9.204;2022-10-19T10:08:20;0.20;;;0.20;;
13764;SDS011;6953;48.810;9.204;2022-10-19T10:10:55;0.20;;;0.20;;
13764;SDS011;6953;48.810;9.204;2022-10-19T10:13:23;0.20;;;0.20;;
13764;SDS011;6953;48.810;9.204;2022-10-19T10:15:55;0.20;;;0.20;;
13764;SDS011;6953;48.810;9.204;2022-10-19T10:18:23;0.20;;;0.20;;
13764;SDS011;6953;48.810;9.204;2022-10-19T10:21:01;0.20;;;0.20;;
13764;SDS011;6953;48.810;9.204;2022-10-19T10:23:44;0.13;;;0.13;;
13764;SDS011;6953;48.810;9.204;2022-10-19T10:26:24;0.20;;;0.20;;
13764;SDS011;6953;48.810;9.204;2022-10-19T10:28:50;0.20;;;0.20;;
13764;SDS011;6953;48.810;9.204;2022-10-19T10:31:25;0.30;;;0.30;;
13764;SDS011;6953;48.810;9.204;2022-10-19T10:33:57;0.20;;;0.20;;
13764;SDS011;6953;48.810;9.204;2022-10-19T10:36:27;0.20;;;0.20;;
13764;SDS011;6953;48.810;9.204;2022-10-19T10:39:15;0.20;;;0.20;;
13764;SDS011;6953;48.810;9.204;2022-10-19T10:41:42;0.20;;;0.20;;
13764;SDS011;6953;48.810;9.204;2022-10-19T10:44:15;0.20;;;0.20;;
13764;SDS011;6953;48.810;9.204;2022-10-19T10:46:54;0.20;;;0.20;;
13764;SDS011;6953;48.810;9.204;2022-10-19T10:49:25;0.20;;;0.20;;
13764;SDS011;6953;48.810;9.204;2022-10-19T10:52:14;0.10;;;0.10;;
13764;SDS011;6953;48.810;9.204;2022-10-19T10:55:24;0.20;;;0.20;;
13764;SDS011;6953;48.810;9.204;2022-10-19T10:57:37;0.10;;;0.10;;
13764;SDS011;6953;48.810;9.204;2022-10-19T11:00:14;0.10;;;0.10;;
13764;SDS011;6953;48.810;9.204;2022-10-19T11:05:46;0.10;;;0.10;;
13764;SDS011;6953;48.810;9.204;2022-10-19T11:14:00;0.17;;;0.17;;
13764;SDS011;6953;48.810;9.204;2022-10-19T11:16:41;0.10;;;0.10;;
13764;SDS011;6953;48.810;9.204;2022-10-19T11:21:45;0.10;;;0.10;;
13764;SDS011;6953;48.810;9.204;2022-10-19T11:24:34;0.10;;;0.10;;
13764;SDS011;6953;48.810;9.204;2022-10-19T11:27:17;0.10;;;0.10;;
13764;SDS011;6953;48.810;9.204;2022-10-19T11:52:31;0.20;;;0.20;;
13764;SDS011;6953;48.810;9.204;2022-10-19T12:01:02;0.10;;;0.10;;
13764;SDS011;6953;48.810;9.204;2022-10-19T12:03:47;0.10;;;0.10;;
13764;SDS011;6953;48.810;9.204;2022-10-19T12:06:19;0.10;;;0.10;;
13764;SDS011;6953;48.810;9.204;2022-10-19T12:09:06;0.10;;;0.10;;
13764;SDS011;6953;48.810;9.204;2022-10-19T12:12:22;0.20;;;0.20;;
13764;SDS011;6953;48.810;9.204;2022-10-19T12:14:45;0.10;;;0.10;;
13764;SDS011;6953;48.810;9.204;2022-10-19T12:17:25;0.10;;;0.10;;
13764;SDS011;6953;48.810;9.204;2022-10-19T12:19:55;0.10;;;0.10;;
13764;SDS011;6953;48.810;9.204;2022-10-19T12:22:26;0.10;;;0.10;;
13764;SDS011;6953;48.810;9.204;2022-10-19T12:24:54;0.10;;;0.10;;
13764;SDS011;6953;48.810;9.204;2022-10-19T12:27:34;0.10;;;0.10;;
13764;SDS011;6953;48.810;9.204;2022-10-19T12:41:43;0.08;;;0.08;;
13764;SDS011;6953;48.810;9.204;2022-10-19T12:47:08;0.00;;;0.00;;
13764;SDS011;6953;48.810;9.204;2022-10-19T12:49:53;0.00;;;0.00;;
13764;SDS011;6953;48.810;9.204;2022-10-19T12:57:39;0.10;;;0.10;;
13764;SDS011;6953;48.810;9.204;2022-10-19T13:00:21;0.10;;;0.10;;
13764;SDS011;6953;48.810;9.204;2022-10-19T13:03:05;0.03;;;0.03;;
13764;SDS011;6953;48.810;9.204;2022-10-19T13:05:39;0.00;;;0.00;;
13764;SDS011;6953;48.810;9.204;2022-10-19T13:08:05;0.10;;;0.10;;
13764;SDS011;6953;48.810;9.204;2022-10-19T13:10:31;0.10;;;0.10;;
13764;SDS011;6953;48.810;9.204;2022-10-19T13:12:58;0.10;;;0.10;;
13764;SDS011;6953;48.810;9.204;2022-10-19T13:18:10;0.10;;;0.10;;
13764;SDS011;6953;48.810;9.204;2022-10-19T13:25:31;0.20;;;0.20;;
13764;SDS011;6953;48.810;9.204;2022-10-19T13:38:27;0.10;;;0.10;;
13764;SDS011;6953;48.810;9.204;2022-10-19T13:51:00;0.20;;;0.20;;
13764;SDS011;6953;48.810;9.204;2022-10-19T13:56:39;0.30;;;0.30;;
13764;SDS011;6953;48.810;9.204;2022-10-19T14:02:15;0.20;;;0.20;;
13764;SDS011;6953;48.810;9.204;2022-10-19T14:05:02;0.20;;;0.20;;
13764;SDS011;6953;48.810;9.204;2022-10-19T14:07:44;0.20;;;0.20;;
13764;SDS011;6953;48.810;9.204;2022-10-19T14:10:22;0.20;;;0.20;;
13764;SDS011;6953;48.810;9.204;2022-10-19T14:12:47;0.20;;;0.20;;
13764;SDS011;6953;48.810;9.204;2022-10-19T14:17:42;0.20;;;0.20;;
13764;SDS011;6953;48.810;9.204;2022-10-19T14:22:52;0.20;;;0.20;;
13764;SDS011;6953;48.810;9.204;2022-10-19T14:25:19;0.20;;;0.20;;
13764;SDS011;6953;48.810;9.204;2022-10-19T14:27:55;0.20;;;0.20;;
13764;SDS011;6953;48.810;9.204;2022-10-19T14:32:52;0.20;;;0.20;;
13764;SDS011;6953;48.810;9.204;2022-10-19T14:35:32;0.20;;;0.20;;
13764;SDS011;6953;48.810;9.204;2022-10-19T14:37:59;0.20;;;0.20;;
13764;SDS011;6953;48.810;9.204;2022-10-19T14:42:56;0.20;;;0.20;;
13764;SDS011;6953;48.810;9.204;2022-10-19T14:45:26;0.20;;;0.20;;
13764;SDS011;6953;48.810;9.204;2022-10-19T14:48:00;0.20;;;0.20;;
13764;SDS011;6953;48.810;9.204;2022-10-19T14:53:31;0.30;;;0.30;;
13764;SDS011;6953;48.810;9.204;2022-10-19T14:56:09;0.20;;;0.20;;
13764;SDS011;6953;48.810;9.204;2022-10-19T14:58:44;0.20;;;0.20;;
13764;SDS011;6953;48.810;9.204;2022-10-19T15:01:14;0.30;;;0.30;;
13764;SDS011;6953;48.810;9.204;2022-10-19T15:03:42;0.25;;;0.25;;
13764;SDS011;6953;48.810;9.204;2022-10-19T15:06:15;0.20;;;0.20;;
13764;SDS011;6953;48.810;9.204;2022-10-19T15:08:50;0.22;;;0.22;;
13764;SDS011;6953;48.810;9.204;2022-10-19T15:11:34;0.20;;;0.20;;
13764;SDS011;6953;48.810;9.204;2022-10-19T15:14:13;0.30;;;0.30;;
13764;SDS011;6953;48.810;9.204;2022-10-19T15:16:54;0.20;;;0.20;;
13764;SDS011;6953;48.810;9.204;2022-10-19T15:19:26;0.20;;;0.20;;
13764;SDS011;6953;48.810;9.204;2022-10-19T15:24:38;0.20;;;0.20;;
13764;SDS011;6953;48.810;9.204;2022-10-19T15:27:20;0.30;;;0.30;;
13764;SDS011;6953;48.810;9.204;2022-10-19T15:32:41;0.30;;;0.30;;
13764;SDS011;6953;48.810;9.204;2022-10-19T15:35:15;0.20;;;0.20;;
13764;SDS011;6953;48.810;9.204;2022-10-19T15:38:00;0.20;;;0.20;;
13764;SDS011;6953;48.810;9.204;2022-10-19T15:40:35;0.20;;;0.20;;
13764;SDS011;6953;48.810;9.204;2022-10-19T15:46:19;0.20;;;0.20;;
13764;SDS011;6953;48.810;9.204;2022-10-19T15:48:47;0.20;;;0.20;;
13764;SDS011;6953;48.810;9.204;2022-10-19T15:51:47;0.20;;;0.20;;
13764;SDS011;6953;48.810;9.204;2022-10-19T15:54:10;0.20;;;0.20;;
13764;SDS011;6953;48.810;9.204;2022-10-19T15:56:37;0.10;;;0.10;;
13764;SDS011;6953;48.810;9.204;2022-10-19T15:59:25;0.20;;;0.20;;
13764;SDS011;6953;48.810;9.204;2022-10-19T16:01:49;0.28;;;0.28;;
13764;SDS011;6953;48.810;9.204;2022-10-19T16:04:15;0.30;;;0.30;;
13764;SDS011;6953;48.810;9.204;2022-10-19T16:06:42;0.30;;;0.30;;
13764;SDS011;6953;48.810;9.204;2022-10-19T16:09:13;0.30;;;0.30;;
13764;SDS011;6953;48.810;9.204;2022-10-19T16:11:41;0.30;;;0.30;;
13764;SDS011;6953;48.810;9.204;2022-10-19T16:14:07;0.30;;;0.30;;
13764;SDS011;6953;48.810;9.204;2022-10-19T16:16:32;0.30;;;0.30;;
13764;SDS011;6953;48.810;9.204;2022-10-19T16:18:58;0.30;;;0.30;;
13764;SDS011;6953;48.810;9.204;2022-10-19T16:21:29;0.20;;;0.20;;
13764;SDS011;6953;48.810;9.204;2022-10-19T16:23:56;0.20;;;0.20;;
13764;SDS011;6953;48.810;9.204;2022-10-19T16:26:22;0.30;;;0.30;;
13764;SDS011;6953;48.810;9.204;2022-10-19T16:28:50;0.20;;;0.20;;
13764;SDS011;6953;48.810;9.204;2022-10-19T16:31:15;0.20;;;0.20;;
13764;SDS011;6953;48.810;9.204;2022-10-19T16:33:42;0.30;;;0.30;;
13764;SDS011;6953;48.810;9.204;2022-10-19T16:36:08;0.20;;;0.20;;
13764;SDS011;6953;48.810;9.204;2022-10-19T16:38:33;0.30;;;0.30;;
13764;SDS011;6953;48.810;9.204;2022-10-19T16:41:03;0.20;;;0.20;;
13764;SDS011;6953;48.810;9.204;2022-10-19T16:43:33;0.20;;;0.20;;
13764;SDS011;6953;48.810;9.204;2022-10-19T16:45:59;0.30;;;0.30;;
13764;SDS011;6953;48.810;9.204;2022-10-19T16:48:24;0.20;;;0.20;;
13764;SDS011;6953;48.810;9.204;2022-10-19T16:51:15;0.28;;;0.28;;
13764;SDS011;6953;48.810;9.204;2022-10-19T16:53:51;0.25;;;0.25;;
13764;SDS011;6953;48.810;9.204;2022-10-19T16:56:19;0.30;;;0.30;;
13764;SDS011;6953;48.810;9.204;2022-10-19T16:58:45;0.30;;;0.30;;
13764;SDS011;6953;48.810;9.204;2022-10-19T17:01:15;0.30;;;0.30;;
13764;SDS011;6953;48.810;9.204;2022-10-19T17:03:43;0.30;;;0.30;;
13764;SDS011;6953;48.810;9.204;2022-10-19T17:06:09;0.35;;;0.35;;
13764;SDS011;6953;48.810;9.204;2022-10-19T17:08:35;0.40;;;0.40;;
13764;SDS011;6953;48.810;9.204;2022-10-19T17:11:35;0.40;;;0.40;;
13764;SDS011;6953;48.810;9.204;2022-10-19T17:13:56;0.30;;;0.30;;
13764;SDS011;6953;48.810;9.204;2022-10-19T17:16:24;0.40;;;0.40;;
13764;SDS011;6953;48.810;9.204;2022-10-19T17:18:53;0.40;;;0.40;;
13764;SDS011;6953;48.810;9.204;2022-10-19T17:21:21;0.40;;;0.40;;
13764;SDS011;6953;48.810;9.204;2022-10-19T17:23:55;0.30;;;0.30;;
13764;SDS011;6953;48.810;9.204;2022-10-19T17:26:26;0.40;;;0.40;;
13764;SDS011;6953;48.810;9.204;2022-10-19T17:28:58;0.40;;;0.40;;
13764;SDS011;6953;48.810;9.204;2022-10-19T17:31:24;0.40;;;0.40;;
13764;SDS011;6953;48.810;9.204;2022-10-19T17:33:51;0.32;;;0.32;;
13764;SDS011;6953;48.810;9.204;2022-10-19T17:36:19;0.40;;;0.40;;
13764;SDS011;6953;48.810;9.204;2022-10-19T17:38:47;0.40;;;0.40;;
13764;SDS011;6953;48.810;9.204;2022-10-19T17:41:14;0.40;;;0.40;;
13764;SDS011;6953;48.810;9.204;2022-10-19T17:43:41;0.38;;;0.38;;
13764;SDS011;6953;48.810;9.204;2022-10-19T17:46:08;0.40;;;0.40;;
13764;SDS011;6953;48.810;9.204;2022-10-19T17:48:36;0.40;;;0.40;;
13764;SDS011;6953;48.810;9.204;2022-10-19T17:51:03;0.40;;;0.40;;
13764;SDS011;6953;48.810;9.204;2022-10-19T17:53:31;0.40;;;0.40;;
13764;SDS011;6953;48.810;9.204;2022-10-19T17:55:58;0.32;;;0.32;;